Time;durP1;ratioP1;P1;durP2;ratioP2;P2;SDS_P1;SDS_P2;PMS_P1;PMS_P2;Temp;Humidity;BMP_temperature;BMP_pressure;BME280_temperature;BME280_humidity;BME280_pressure;Samples;Min_cycle;Max_cycle;Signal;HPM_P1;HPM_P2
2021/11/28 00:02:20;;;;;;;1.60;1.40;;;3.80;98.20;;;;;;4891522;29;20594;-79
2021/11/28 00:04:47;;;;;;;1.60;1.40;;;3.80;98.20;;;;;;4891836;29;20970;-78
2021/11/28 00:07:26;;;;;;;1.63;1.40;;;3.70;98.20;;;;;;4892465;29;20476;-77
2021/11/28 00:10:01;;;;;;;1.67;1.53;;;3.70;98.20;;;;;;4889170;29;20489;-78
2021/11/28 00:12:40;;;;;;;1.67;1.50;;;3.70;98.20;;;;;;4891453;29;20501;-76
2021/11/28 00:15:09;;;;;;;1.60;1.50;;;3.70;98.20;;;;;;4890311;29;20469;-78
2021/11/28 00:17:36;;;;;;;1.60;1.40;;;3.70;98.20;;;;;;4890376;29;20476;-79
2021/11/28 00:20:06;;;;;;;1.60;1.50;;;3.70;98.20;;;;;;4889748;29;20505;-77
2021/11/28 00:22:33;;;;;;;1.63;1.50;;;3.70;98.20;;;;;;4889990;29;20966;-77
2021/11/28 00:25:01;;;;;;;1.67;1.50;;;3.70;98.20;;;;;;4887095;29;20917;-77
2021/11/28 00:27:28;;;;;;;1.63;1.50;;;3.70;98.20;;;;;;4896731;29;20465;-78
2021/11/28 00:29:55;;;;;;;1.60;1.40;;;3.70;98.20;;;;;;4891329;29;20490;-77
2021/11/28 00:32:21;;;;;;;1.67;1.50;;;3.70;98.20;;;;;;4890255;29;20848;-76
2021/11/28 00:34:49;;;;;;;1.60;1.40;;;3.70;98.20;;;;;;4889952;29;20537;-77
2021/11/28 00:37:16;;;;;;;1.60;1.40;;;3.70;98.20;;;;;;4890821;29;20497;-76
2021/11/28 00:39:45;;;;;;;1.60;1.50;;;3.70;98.20;;;;;;4889858;29;20497;-76
2021/11/28 00:42:13;;;;;;;1.63;1.50;;;3.70;98.20;;;;;;4891576;29;20561;-77
2021/11/28 00:44:40;;;;;;;1.63;1.50;;;3.70;98.20;;;;;;4889976;29;20488;-77
2021/11/28 00:47:08;;;;;;;1.63;1.50;;;3.70;98.20;;;;;;4890624;29;20517;-76
2021/11/28 00:49:36;;;;;;;1.70;1.40;;;3.60;98.20;;;;;;4886568;29;21012;-81
2021/11/28 00:52:04;;;;;;;1.60;1.40;;;3.60;98.20;;;;;;4883585;29;20497;-78
2021/11/28 00:54:31;;;;;;;1.60;1.50;;;3.60;98.20;;;;;;4889334;29;20469;-77
2021/11/28 00:56:59;;;;;;;1.60;1.40;;;3.60;98.20;;;;;;4893724;29;20500;-77
2021/11/28 00:59:28;;;;;;;1.60;1.50;;;3.60;98.20;;;;;;4893853;29;20500;-77
2021/11/28 01:01:54;;;;;;;1.60;1.40;;;3.50;98.20;;;;;;4892374;29;20481;-77
2021/11/28 01:04:21;;;;;;;1.70;1.60;;;3.50;98.20;;;;;;4889292;29;20481;-76
2021/11/28 01:06:48;;;;;;;1.67;1.57;;;3.50;98.20;;;;;;4889990;29;20470;-77
2021/11/28 01:09:15;;;;;;;1.60;1.47;;;3.50;98.20;;;;;;4889970;29;20501;-77
2021/11/28 01:11:43;;;;;;;1.60;1.33;;;3.50;98.20;;;;;;4890818;29;20470;-77
2021/11/28 01:14:10;;;;;;;2.20;2.00;;;3.50;98.20;;;;;;4886855;29;20477;-77
2021/11/28 01:16:43;;;;;;;1.67;1.50;;;3.50;98.20;;;;;;4892580;29;20486;-77
2021/11/28 01:19:10;;;;;;;1.60;1.50;;;3.50;98.20;;;;;;4887782;29;20485;-76
2021/11/28 01:21:37;;;;;;;1.60;1.50;;;3.50;98.20;;;;;;4885354;29;20469;-76
2021/11/28 01:24:05;;;;;;;1.60;1.40;;;3.50;98.20;;;;;;4891083;29;20481;-77
2021/11/28 01:26:31;;;;;;;1.60;1.50;;;3.50;98.20;;;;;;4888423;29;20485;-80
2021/11/28 01:28:59;;;;;;;1.70;1.53;;;3.50;98.20;;;;;;4893660;29;20480;-77
2021/11/28 01:31:25;;;;;;;1.60;1.40;;;3.50;98.20;;;;;;4892765;29;20477;-77
2021/11/28 01:33:54;;;;;;;1.60;1.50;;;3.60;98.20;;;;;;4892844;29;20858;-77
2021/11/28 01:36:21;;;;;;;1.60;1.50;;;3.50;98.20;;;;;;4892548;29;20493;-78
2021/11/28 01:38:47;;;;;;;1.60;1.50;;;3.50;98.20;;;;;;4893477;29;20469;-77
2021/11/28 01:41:14;;;;;;;1.70;1.60;;;3.50;98.20;;;;;;4899433;29;20500;-77
2021/11/28 01:43:42;;;;;;;1.60;1.40;;;3.50;98.20;;;;;;4891359;29;20473;-78
2021/11/28 01:46:09;;;;;;;1.60;1.50;;;3.60;98.20;;;;;;4892455;29;20966;-76
2021/11/28 01:48:35;;;;;;;1.70;1.50;;;3.60;98.20;;;;;;4887611;29;20471;-79
2021/11/28 01:51:04;;;;;;;1.70;1.60;;;3.60;98.20;;;;;;4887817;29;21025;-77
2021/11/28 01:53:31;;;;;;;1.60;1.40;;;3.60;98.20;;;;;;4887329;29;20466;-77
2021/11/28 01:55:59;;;;;;;1.60;1.40;;;3.60;98.20;;;;;;4895606;29;20499;-78
2021/11/28 01:58:26;;;;;;;1.60;1.50;;;3.60;98.20;;;;;;4900132;29;20473;-81
2021/11/28 02:00:56;;;;;;;1.60;1.50;;;3.60;98.20;;;;;;4894976;29;21018;-77
2021/11/28 02:03:24;;;;;;;1.63;1.50;;;3.60;98.20;;;;;;4892976;29;20478;-76
2021/11/28 02:05:52;;;;;;;1.70;1.60;;;3.60;98.20;;;;;;4891905;29;20494;-78
2021/11/28 02:08:21;;;;;;;1.70;1.60;;;3.60;98.20;;;;;;4893432;29;20473;-77
2021/11/28 02:10:49;;;;;;;1.67;1.50;;;3.60;98.20;;;;;;4893869;29;20489;-77
2021/11/28 02:13:17;;;;;;;1.63;1.50;;;3.50;98.20;;;;;;4901178;29;20470;-77
2021/11/28 02:15:44;;;;;;;1.63;1.50;;;3.50;98.20;;;;;;4892167;29;20480;-77
2021/11/28 02:18:11;;;;;;;1.60;1.50;;;3.50;98.20;;;;;;4893092;29;20470;-77
2021/11/28 02:20:44;;;;;;;1.60;1.50;;;3.50;98.20;;;;;;4886384;29;21027;-77
2021/11/28 02:23:11;;;;;;;1.60;1.50;;;3.50;98.20;;;;;;4888699;29;20469;-76
2021/11/28 02:25:38;;;;;;;1.67;1.43;;;3.50;98.20;;;;;;4897061;29;20476;-76
2021/11/28 02:28:05;;;;;;;1.63;1.50;;;3.50;98.20;;;;;;4906238;29;20465;-76
2021/11/28 02:30:32;;;;;;;1.63;1.40;;;3.50;98.20;;;;;;4898564;29;20496;-76
2021/11/28 02:32:59;;;;;;;1.60;1.40;;;3.50;98.20;;;;;;4899148;29;20473;-77
2021/11/28 02:35:30;;;;;;;1.70;1.57;;;3.50;98.20;;;;;;4898119;29;20852;-77
2021/11/28 02:37:59;;;;;;;1.60;1.43;;;3.50;98.20;;;;;;4892890;29;21097;-77
2021/11/28 02:40:27;;;;;;;1.60;1.40;;;3.50;98.20;;;;;;4891827;29;20515;-77
2021/11/28 02:42:55;;;;;;;1.63;1.50;;;3.50;98.20;;;;;;4902021;29;20472;-76
2021/11/28 02:45:24;;;;;;;1.67;1.50;;;3.50;98.20;;;;;;4899628;29;20474;-77
2021/11/28 02:47:54;;;;;;;1.60;1.40;;;3.60;98.20;;;;;;4879440;29;20479;-77
2021/11/28 02:50:22;;;;;;;1.60;1.40;;;3.60;98.20;;;;;;4889444;29;20489;-77
2021/11/28 02:52:53;;;;;;;1.67;1.50;;;3.60;98.20;;;;;;4890666;29;20491;-77
2021/11/28 02:55:23;;;;;;;1.70;1.50;;;3.50;98.20;;;;;;4899021;29;20462;-77
2021/11/28 02:57:50;;;;;;;1.60;1.50;;;3.50;98.20;;;;;;4908980;29;20496;-77
2021/11/28 03:00:18;;;;;;;1.67;1.50;;;3.50;98.20;;;;;;4891553;29;20485;-76
2021/11/28 03:02:45;;;;;;;1.63;1.50;;;3.40;98.20;;;;;;4905064;29;20954;-76
2021/11/28 03:05:12;;;;;;;1.67;1.50;;;3.40;98.20;;;;;;4898745;29;20469;-76
2021/11/28 03:07:40;;;;;;;1.60;1.50;;;3.40;98.20;;;;;;4898659;29;20475;-76
2021/11/28 03:10:28;;;;;;;1.67;1.50;;;3.40;98.20;;;;;;4898693;29;20493;-76
2021/11/28 03:12:56;;;;;;;1.80;1.70;;;3.40;98.20;;;;;;4897706;29;20504;-78
2021/11/28 03:15:24;;;;;;;1.63;1.50;;;3.30;98.20;;;;;;4891862;29;20590;-76
2021/11/28 03:17:51;;;;;;;1.70;1.60;;;3.30;98.20;;;;;;4891496;29;20500;-76
2021/11/28 03:20:19;;;;;;;1.67;1.50;;;3.30;98.20;;;;;;4886558;29;20676;-76
2021/11/28 03:22:47;;;;;;;1.60;1.40;;;3.30;98.20;;;;;;4888046;29;20465;-76
2021/11/28 03:25:15;;;;;;;1.60;1.50;;;3.30;98.20;;;;;;4896425;29;20468;-76
2021/11/28 03:27:43;;;;;;;1.70;1.60;;;3.30;98.20;;;;;;4908870;29;20751;-76
2021/11/28 03:30:12;;;;;;;1.70;1.60;;;3.30;98.20;;;;;;4898566;29;20565;-76
2021/11/28 03:32:39;;;;;;;1.60;1.50;;;3.30;98.20;;;;;;4892579;29;20473;-77
2021/11/28 03:35:08;;;;;;;1.60;1.50;;;3.30;98.20;;;;;;4900531;29;20671;-76
2021/11/28 03:37:35;;;;;;;1.70;1.60;;;3.30;98.20;;;;;;4896966;29;20860;-76
2021/11/28 03:40:03;;;;;;;1.63;1.50;;;3.30;98.20;;;;;;4894877;29;20540;-76
2021/11/28 03:42:31;;;;;;;1.70;1.60;;;3.20;98.20;;;;;;4893281;29;20560;-76
2021/11/28 03:44:58;;;;;;;1.67;1.57;;;3.20;98.20;;;;;;4893636;29;20999;-76
2021/11/28 03:47:26;;;;;;;1.67;1.50;;;3.20;98.20;;;;;;4894434;29;20465;-76
2021/11/28 03:49:54;;;;;;;1.80;1.70;;;3.20;98.20;;;;;;4886162;29;21160;-76
2021/11/28 03:52:21;;;;;;;1.70;1.60;;;3.20;98.20;;;;;;4892796;29;20556;-76
2021/11/28 03:54:48;;;;;;;1.63;1.50;;;3.10;98.20;;;;;;4891906;29;20552;-76
2021/11/28 03:57:14;;;;;;;1.63;1.50;;;3.10;98.20;;;;;;4902089;29;21031;-79
2021/11/28 03:59:41;;;;;;;1.60;1.50;;;3.10;98.20;;;;;;4895671;29;20489;-76
2021/11/28 04:02:08;;;;;;;1.60;1.50;;;3.10;98.20;;;;;;4893688;29;20466;-78
2021/11/28 04:04:36;;;;;;;1.63;1.50;;;3.10;98.20;;;;;;4896309;29;20466;-77
2021/11/28 04:07:03;;;;;;;1.60;1.50;;;3.10;98.20;;;;;;4893495;29;20470;-77
2021/11/28 04:09:30;;;;;;;1.80;1.70;;;3.10;98.20;;;;;;4894119;29;20769;-77
2021/11/28 04:11:57;;;;;;;1.63;1.50;;;3.20;98.20;;;;;;4895149;29;20470;-76
2021/11/28 04:14:24;;;;;;;1.70;1.50;;;3.20;98.20;;;;;;4893331;29;20499;-77
2021/11/28 04:16:50;;;;;;;1.60;1.50;;;3.20;98.20;;;;;;4894277;29;20497;-77
2021/11/28 04:19:17;;;;;;;1.70;1.60;;;3.20;98.20;;;;;;4894181;29;20559;-77
2021/11/28 04:21:45;;;;;;;1.60;1.40;;;3.30;98.20;;;;;;4889344;29;20478;-77
2021/11/28 04:24:12;;;;;;;1.63;1.50;;;3.30;98.20;;;;;;4892433;29;20484;-77
2021/11/28 04:26:40;;;;;;;1.60;1.50;;;3.30;98.20;;;;;;4904450;29;20498;-76
2021/11/28 04:29:07;;;;;;;1.70;1.50;;;3.30;98.20;;;;;;4897197;29;20529;-80
2021/11/28 04:31:33;;;;;;;1.60;1.40;;;3.30;98.20;;;;;;4902530;29;20466;-76
2021/11/28 04:34:00;;;;;;;1.67;1.50;;;3.30;98.20;;;;;;4894208;29;20958;-80
2021/11/28 04:36:27;;;;;;;1.67;1.50;;;3.30;98.20;;;;;;4894363;29;20567;-79
2021/11/28 04:38:55;;;;;;;1.67;1.50;;;3.40;98.20;;;;;;4894448;29;20469;-77
2021/11/28 04:41:22;;;;;;;1.63;1.50;;;3.40;98.20;;;;;;4893909;29;20470;-76
2021/11/28 04:43:49;;;;;;;1.70;1.60;;;3.40;98.20;;;;;;4893442;29;20511;-79
2021/11/28 04:46:16;;;;;;;1.60;1.50;;;3.40;98.20;;;;;;4891522;29;20566;-78
2021/11/28 04:48:43;;;;;;;1.60;1.50;;;3.40;98.20;;;;;;4899683;29;20464;-77
2021/11/28 04:51:09;;;;;;;1.60;1.50;;;3.40;98.20;;;;;;4890270;29;20500;-79
2021/11/28 04:53:36;;;;;;;1.60;1.50;;;3.40;98.20;;;;;;4891628;29;20930;-77
2021/11/28 04:56:05;;;;;;;1.60;1.40;;;3.40;98.20;;;;;;4895348;29;20471;-77
2021/11/28 04:58:32;;;;;;;1.63;1.40;;;3.40;98.20;;;;;;4892035;29;20497;-80
2021/11/28 05:00:59;;;;;;;1.70;1.50;;;3.40;98.20;;;;;;4897327;29;20500;-76
2021/11/28 05:03:25;;;;;;;1.60;1.50;;;3.50;98.20;;;;;;4894958;29;20471;-76
2021/11/28 05:05:52;;;;;;;1.63;1.50;;;3.50;98.20;;;;;;4893308;29;20473;-77
2021/11/28 05:08:19;;;;;;;1.63;1.50;;;3.50;98.20;;;;;;4894221;29;20466;-76
2021/11/28 05:10:46;;;;;;;1.63;1.50;;;3.50;98.20;;;;;;4893536;29;20486;-77
2021/11/28 05:13:14;;;;;;;1.70;1.50;;;3.50;98.20;;;;;;4893152;29;20474;-78
2021/11/28 05:15:41;;;;;;;1.67;1.50;;;3.50;98.20;;;;;;4893103;29;20485;-84
2021/11/28 05:18:07;;;;;;;1.60;1.50;;;3.50;98.20;;;;;;4894137;29;20531;-76
2021/11/28 05:20:34;;;;;;;1.70;1.60;;;3.50;98.20;;;;;;4888793;29;20485;-80
2021/11/28 05:23:01;;;;;;;1.60;1.50;;;3.50;98.20;;;;;;4890301;29;20469;-77
2021/11/28 05:25:28;;;;;;;1.63;1.50;;;3.50;98.20;;;;;;4893083;29;20474;-77
2021/11/28 05:27:55;;;;;;;1.60;1.30;;;3.50;98.20;;;;;;4898690;29;20470;-77
2021/11/28 05:30:23;;;;;;;1.60;1.40;;;3.50;98.20;;;;;;4896773;29;20487;-77
2021/11/28 05:32:50;;;;;;;1.60;1.47;;;3.50;98.20;;;;;;4890587;29;20844;-76
2021/11/28 05:35:17;;;;;;;1.60;1.43;;;3.50;98.20;;;;;;4892849;29;20467;-78
2021/11/28 05:37:45;;;;;;;1.60;1.50;;;3.50;98.20;;;;;;4893456;29;20516;-77
2021/11/28 05:40:13;;;;;;;1.60;1.50;;;3.50;98.20;;;;;;4914581;23;20502;-79
2021/11/28 05:42:44;;;;;;;1.70;1.60;;;3.60;98.20;;;;;;4905701;29;20469;-79
2021/11/28 05:45:11;;;;;;;1.60;1.40;;;3.60;98.20;;;;;;4892644;29;20824;-78
2021/11/28 05:47:39;;;;;;;1.70;1.50;;;3.60;98.20;;;;;;4893113;29;20476;-78
2021/11/28 05:50:07;;;;;;;1.67;1.50;;;3.60;98.20;;;;;;4895200;29;21032;-78
2021/11/28 05:52:34;;;;;;;1.70;1.50;;;3.60;98.20;;;;;;4908996;29;20835;-78
2021/11/28 05:55:02;;;;;;;1.60;1.47;;;3.60;98.20;;;;;;4908557;29;20467;-78
2021/11/28 05:57:29;;;;;;;1.60;1.47;;;3.60;98.20;;;;;;4901651;29;20660;-78
2021/11/28 05:59:56;;;;;;;1.60;1.40;;;3.60;98.20;;;;;;4901698;29;20491;-79
2021/11/28 06:02:23;;;;;;;1.70;1.57;;;3.60;98.20;;;;;;4907897;29;20888;-78
2021/11/28 06:04:51;;;;;;;1.60;1.40;;;3.60;98.20;;;;;;4911302;29;20479;-79
2021/11/28 06:07:18;;;;;;;1.70;1.50;;;3.60;98.20;;;;;;4912741;29;20468;-79
2021/11/28 06:09:45;;;;;;;1.70;1.60;;;3.60;98.20;;;;;;4908989;29;21044;-78
2021/11/28 06:12:12;;;;;;;1.70;1.60;;;3.60;98.20;;;;;;4912378;29;20977;-78
2021/11/28 06:14:39;;;;;;;1.60;1.50;;;3.60;98.20;;;;;;4910313;29;20476;-78
2021/11/28 06:17:06;;;;;;;1.70;1.50;;;3.60;98.20;;;;;;4912123;29;20493;-78
2021/11/28 06:19:33;;;;;;;1.70;1.60;;;3.60;98.20;;;;;;4898989;29;20533;-78
2021/11/28 06:22:01;;;;;;;2.37;2.17;;;3.60;98.20;;;;;;4904116;29;20469;-78
2021/11/28 06:24:28;;;;;;;1.60;1.50;;;3.60;98.20;;;;;;4893317;29;20972;-77
2021/11/28 06:26:54;;;;;;;1.67;1.50;;;3.60;98.20;;;;;;4900540;29;20469;-77
2021/11/28 06:29:21;;;;;;;1.63;1.40;;;3.60;98.20;;;;;;4898664;29;20473;-78
2021/11/28 06:31:48;;;;;;;1.60;1.50;;;3.70;98.20;;;;;;4911741;29;20629;-78
2021/11/28 06:34:15;;;;;;;1.60;1.43;;;3.60;98.20;;;;;;4894705;29;20776;-77
2021/11/28 06:36:42;;;;;;;1.60;1.50;;;3.70;98.20;;;;;;4893773;29;20490;-78
2021/11/28 06:39:10;;;;;;;1.70;1.50;;;3.60;98.20;;;;;;4901108;29;20488;-78
2021/11/28 06:41:37;;;;;;;1.60;1.50;;;3.60;98.20;;;;;;4903924;29;20899;-77
2021/11/28 06:44:04;;;;;;;1.63;1.50;;;3.60;98.20;;;;;;4897165;29;20468;-77
2021/11/28 06:46:31;;;;;;;1.63;1.50;;;3.60;98.20;;;;;;4909605;29;20499;-77
2021/11/28 06:48:58;;;;;;;1.60;1.40;;;3.60;98.20;;;;;;4899496;29;20461;-77
2021/11/28 06:51:25;;;;;;;1.60;1.40;;;3.60;98.20;;;;;;4899374;29;20496;-78
2021/11/28 06:53:51;;;;;;;1.60;1.40;;;3.60;98.20;;;;;;4891755;29;21106;-78
2021/11/28 06:56:19;;;;;;;1.60;1.50;;;3.60;98.20;;;;;;4894651;29;20465;-77
2021/11/28 06:58:46;;;;;;;1.60;1.50;;;3.60;98.20;;;;;;4901891;29;20494;-78
2021/11/28 07:01:14;;;;;;;1.60;1.50;;;3.60;98.20;;;;;;4889073;29;20706;-76
2021/11/28 07:03:41;;;;;;;1.60;1.40;;;3.60;98.20;;;;;;4897799;29;20843;-76
2021/11/28 07:06:08;;;;;;;1.67;1.50;;;3.60;98.20;;;;;;4893353;29;20890;-78
2021/11/28 07:08:35;;;;;;;1.70;1.57;;;3.60;98.20;;;;;;4909514;29;20528;-78
2021/11/28 07:11:02;;;;;;;1.60;1.40;;;3.60;98.20;;;;;;4911065;29;20484;-78
2021/11/28 07:13:30;;;;;;;1.60;1.40;;;3.60;98.20;;;;;;4907021;29;20477;-77
2021/11/28 07:15:56;;;;;;;1.60;1.47;;;3.60;98.20;;;;;;4896808;29;20469;-77
2021/11/28 07:18:23;;;;;;;1.63;1.50;;;3.60;98.20;;;;;;4912044;29;20495;-77
2021/11/28 07:20:50;;;;;;;1.60;1.40;;;3.60;98.20;;;;;;4894622;29;20551;-77
2021/11/28 07:23:17;;;;;;;1.63;1.50;;;3.60;98.20;;;;;;4900550;29;20877;-77
2021/11/28 07:25:44;;;;;;;1.70;1.50;;;3.60;98.20;;;;;;4898595;29;21047;-78
2021/11/28 07:28:11;;;;;;;1.60;1.40;;;3.60;98.20;;;;;;4898243;29;20461;-77
2021/11/28 07:30:39;;;;;;;1.60;1.47;;;3.60;98.20;;;;;;4889388;29;20512;-78
2021/11/28 07:33:06;;;;;;;1.63;1.50;;;3.60;98.20;;;;;;4892845;29;20470;-77
2021/11/28 07:35:32;;;;;;;1.63;1.40;;;3.60;98.20;;;;;;4899919;29;20469;-79
2021/11/28 07:38:00;;;;;;;1.60;1.40;;;3.60;98.20;;;;;;4900910;29;20500;-77
2021/11/28 07:40:27;;;;;;;1.70;1.50;;;3.70;98.20;;;;;;4895943;29;20501;-79
2021/11/28 07:42:53;;;;;;;1.63;1.50;;;3.70;98.20;;;;;;4894648;29;20954;-78
2021/11/28 07:45:20;;;;;;;1.60;1.47;;;3.70;98.20;;;;;;4891641;29;20474;-77
2021/11/28 07:47:48;;;;;;;1.60;1.50;;;3.70;98.20;;;;;;4889905;29;20465;-77
2021/11/28 07:50:15;;;;;;;1.60;1.40;;;3.70;98.20;;;;;;4895935;29;20497;-77
2021/11/28 07:52:42;;;;;;;1.60;1.50;;;3.70;98.20;;;;;;4891987;29;20492;-79
2021/11/28 07:55:09;;;;;;;1.70;1.60;;;3.70;98.20;;;;;;4895421;29;20469;-77
2021/11/28 07:57:36;;;;;;;1.70;1.60;;;3.70;98.20;;;;;;4894538;29;20497;-79
2021/11/28 08:00:04;;;;;;;1.60;1.50;;;3.70;98.20;;;;;;4897053;29;20497;-79
2021/11/28 08:02:31;;;;;;;1.63;1.40;;;3.70;98.20;;;;;;4897220;29;20473;-78
2021/11/28 08:04:59;;;;;;;1.60;1.43;;;3.70;98.20;;;;;;4907231;29;20472;-78
2021/11/28 08:07:26;;;;;;;1.70;1.60;;;3.70;98.20;;;;;;4892796;29;20508;-78
2021/11/28 08:09:53;;;;;;;1.70;1.60;;;3.70;98.20;;;;;;4888687;29;20489;-78
2021/11/28 08:12:21;;;;;;;1.60;1.40;;;3.70;98.20;;;;;;4891662;29;20469;-77
2021/11/28 08:14:48;;;;;;;1.60;1.40;;;3.80;98.20;;;;;;4891670;29;20477;-77
2021/11/28 08:17:15;;;;;;;1.67;1.40;;;3.80;98.20;;;;;;4897903;29;20484;-78
2021/11/28 08:19:43;;;;;;;1.60;1.47;;;3.80;98.20;;;;;;4892568;29;20493;-78
2021/11/28 08:22:12;;;;;;;1.70;1.43;;;3.80;98.20;;;;;;4894681;29;20484;-79
2021/11/28 08:24:39;;;;;;;1.70;1.50;;;3.80;98.20;;;;;;4887127;29;20499;-76
2021/11/28 08:27:07;;;;;;;1.60;1.40;;;3.80;98.20;;;;;;4895834;29;20483;-75
2021/11/28 08:29:34;;;;;;;1.63;1.40;;;3.80;98.20;;;;;;4897724;29;20481;-78
2021/11/28 08:32:02;;;;;;;3.80;3.53;;;3.80;98.20;;;;;;4891686;29;20481;-77
2021/11/28 08:34:29;;;;;;;1.60;1.37;;;3.90;98.20;;;;;;4895209;29;20496;-79
2021/11/28 08:36:56;;;;;;;1.63;1.40;;;3.90;98.20;;;;;;4880200;29;20494;-76
2021/11/28 08:39:24;;;;;;;1.60;1.40;;;3.90;98.20;;;;;;4897975;29;21071;-77
2021/11/28 08:41:52;;;;;;;1.63;1.50;;;4.00;98.20;;;;;;4886781;29;21390;-78
2021/11/28 08:44:20;;;;;;;1.70;1.40;;;4.00;98.20;;;;;;4907152;29;20572;-76
2021/11/28 08:46:47;;;;;;;1.60;1.30;;;4.00;98.20;;;;;;4881507;29;20587;-77
2021/11/28 08:49:15;;;;;;;1.60;1.40;;;4.10;98.20;;;;;;4902635;29;20480;-78
2021/11/28 08:51:42;;;;;;;1.67;1.40;;;4.10;98.20;;;;;;4892031;29;20647;-77
2021/11/28 08:54:13;;;;;;;1.60;1.40;;;4.20;98.20;;;;;;4899144;29;20469;-76
2021/11/28 08:56:42;;;;;;;1.60;1.40;;;4.20;98.20;;;;;;4888249;29;20488;-76
2021/11/28 08:59:10;;;;;;;1.60;1.40;;;4.30;98.20;;;;;;4903974;29;20705;-78
2021/11/28 09:01:37;;;;;;;1.60;1.40;;;4.30;98.20;;;;;;4885101;29;20502;-76
2021/11/28 09:04:05;;;;;;;2.53;2.33;;;4.30;98.20;;;;;;4911274;29;20468;-78
2021/11/28 09:06:33;;;;;;;1.60;1.40;;;4.40;98.20;;;;;;4885841;29;20520;-75
2021/11/28 09:09:01;;;;;;;1.67;1.40;;;4.40;98.20;;;;;;4899494;29;20509;-77
2021/11/28 09:11:28;;;;;;;1.60;1.40;;;4.40;98.20;;;;;;4887054;29;20500;-77
2021/11/28 09:13:56;;;;;;;1.60;1.43;;;4.40;98.20;;;;;;4902609;29;20509;-78
2021/11/28 09:16:24;;;;;;;1.60;1.40;;;4.40;98.20;;;;;;4878471;29;21010;-78
2021/11/28 09:18:54;;;;;;;1.60;1.50;;;4.50;98.20;;;;;;4899229;29;20497;-76
2021/11/28 09:21:21;;;;;;;1.60;1.40;;;4.50;98.20;;;;;;4878671;29;20760;-76
2021/11/28 09:26:34;;;;;;;1.60;1.40;;;4.50;98.20;;;;;;4879692;29;20869;-76
2021/11/28 09:29:04;;;;;;;1.60;1.40;;;4.60;98.20;;;;;;4890519;29;20722;-77
2021/11/28 09:31:31;;;;;;;1.60;1.40;;;4.60;98.20;;;;;;4881881;29;20492;-77
2021/11/28 09:33:59;;;;;;;1.60;1.40;;;4.70;98.20;;;;;;4896119;29;20477;-75
2021/11/28 09:36:28;;;;;;;1.70;1.50;;;4.70;98.20;;;;;;4880376;29;20584;-76
2021/11/28 09:38:56;;;;;;;1.60;1.40;;;4.80;98.20;;;;;;4898818;29;20503;-78
2021/11/28 09:41:25;;;;;;;1.60;1.40;;;4.80;98.20;;;;;;4875157;29;20501;-76
2021/11/28 09:43:56;;;;;;;1.60;1.30;;;4.90;98.20;;;;;;4901485;29;20480;-76
2021/11/28 09:46:26;;;;;;;1.60;1.40;;;4.90;98.20;;;;;;4876192;29;20637;-76
2021/11/28 09:49:01;;;;;;;1.70;1.50;;;4.90;98.20;;;;;;4898865;29;20475;-75
2021/11/28 09:51:29;;;;;;;1.60;1.30;;;5.00;98.20;;;;;;4877530;29;21012;-77
2021/11/28 09:53:58;;;;;;;1.60;1.30;;;5.00;98.20;;;;;;4891768;29;20792;-75
2021/11/28 09:56:26;;;;;;;1.60;1.40;;;5.00;98.20;;;;;;4880312;29;20603;-77
2021/11/28 09:58:53;;;;;;;1.60;1.40;;;5.00;98.20;;;;;;4901499;29;20579;-76
2021/11/28 10:01:21;;;;;;;1.60;1.30;;;5.10;98.20;;;;;;4873839;29;20521;-77
2021/11/28 10:03:50;;;;;;;1.67;1.50;;;5.10;98.20;;;;;;4890437;29;20878;-77
2021/11/28 10:06:18;;;;;;;1.60;1.30;;;5.10;98.20;;;;;;4875896;29;20485;-76
2021/11/28 10:08:46;;;;;;;1.60;1.40;;;5.10;98.20;;;;;;4901028;29;20917;-77
2021/11/28 10:11:39;;;;;;;1.60;1.40;;;5.10;98.20;;;;;;4878846;29;20489;-77
2021/11/28 10:14:08;;;;;;;1.60;1.40;;;5.20;98.20;;;;;;4900702;29;20552;-78
2021/11/28 10:16:35;;;;;;;1.60;1.33;;;5.20;98.20;;;;;;4884886;29;20552;-78
2021/11/28 10:19:06;;;;;;;1.60;1.40;;;5.30;98.20;;;;;;4893513;29;20554;-77
2021/11/28 10:21:33;;;;;;;1.60;1.40;;;5.30;98.20;;;;;;4877808;29;20553;-77
2021/11/28 10:24:08;;;;;;;1.60;1.30;;;5.30;98.20;;;;;;4893090;29;20531;-77
2021/11/28 10:26:38;;;;;;;1.67;1.40;;;5.40;98.20;;;;;;4885154;29;21095;-79
2021/11/28 10:29:06;;;;;;;1.60;1.30;;;5.40;98.20;;;;;;4900716;29;20473;-77
2021/11/28 10:31:43;;;;;;;1.70;1.50;;;5.40;98.20;;;;;;4877778;29;20492;-77
2021/11/28 10:34:19;;;;;;;1.60;1.40;;;5.40;98.20;;;;;;4891746;29;20465;-74
2021/11/28 10:36:47;;;;;;;1.60;1.30;;;5.50;98.20;;;;;;4879863;29;20484;-77
2021/11/28 10:39:16;;;;;;;1.60;1.30;;;5.50;98.20;;;;;;4898707;29;20493;-75
2021/11/28 10:41:49;;;;;;;1.70;1.40;;;5.60;98.20;;;;;;4880265;29;20496;-76
2021/11/28 10:44:17;;;;;;;1.60;1.30;;;5.60;98.20;;;;;;4896348;29;20926;-77
2021/11/28 10:46:44;;;;;;;1.70;1.50;;;5.70;98.20;;;;;;4888146;29;20490;-76
2021/11/28 10:49:12;;;;;;;1.60;1.30;;;5.70;98.20;;;;;;4904804;29;20618;-76
2021/11/28 10:51:42;;;;;;;1.60;1.40;;;5.70;98.20;;;;;;4877819;29;20557;-78
2021/11/28 10:54:27;;;;;;;1.60;1.30;;;5.80;98.20;;;;;;4894760;29;20555;-77
2021/11/28 10:57:16;;;;;;;1.60;1.30;;;5.80;98.20;;;;;;4889251;29;20488;-78
2021/11/28 10:59:45;;;;;;;1.60;1.30;;;5.70;98.20;;;;;;4897779;29;20497;-75
2021/11/28 11:02:22;;;;;;;1.60;1.30;;;5.80;98.20;;;;;;4885078;29;20483;-77
2021/11/28 11:04:50;;;;;;;1.60;1.30;;;5.80;98.20;;;;;;4892016;29;20563;-76
2021/11/28 11:07:21;;;;;;;1.60;1.40;;;5.90;98.20;;;;;;4890434;29;20963;-75
2021/11/28 11:09:50;;;;;;;1.60;1.40;;;5.90;98.20;;;;;;4894975;29;20467;-78
2021/11/28 11:12:22;;;;;;;1.60;1.30;;;5.90;98.20;;;;;;4893627;29;20580;-77
2021/11/28 11:14:50;;;;;;;1.93;1.73;;;5.90;98.20;;;;;;4894820;29;20473;-76
2021/11/28 11:17:17;;;;;;;1.60;1.30;;;6.00;98.20;;;;;;4891849;29;20922;-77
2021/11/28 11:19:48;;;;;;;1.60;1.30;;;6.00;98.20;;;;;;4892467;29;20676;-77
2021/11/28 11:22:22;;;;;;;1.60;1.30;;;6.10;98.20;;;;;;4893304;29;20542;-77
2021/11/28 11:24:52;;;;;;;1.63;1.30;;;6.10;98.20;;;;;;4892713;29;20717;-77
2021/11/28 11:27:23;;;;;;;1.60;1.30;;;6.10;98.20;;;;;;4888355;29;20996;-77
2021/11/28 11:29:55;;;;;;;1.60;1.30;;;6.10;98.20;;;;;;4892287;29;20946;-77
2021/11/28 11:32:25;;;;;;;1.60;1.30;;;6.10;98.20;;;;;;4879898;29;21026;-77
2021/11/28 11:34:57;;;;;;;1.60;1.30;;;6.10;98.20;;;;;;4893249;29;20549;-77
2021/11/28 11:37:29;;;;;;;1.60;1.30;;;6.00;98.20;;;;;;4875981;29;20874;-77
2021/11/28 11:39:57;;;;;;;1.60;1.40;;;6.00;98.20;;;;;;4897839;29;20503;-77
2021/11/28 11:42:28;;;;;;;1.60;1.30;;;5.90;98.20;;;;;;4894807;29;20846;-75
2021/11/28 11:44:56;;;;;;;1.60;1.30;;;5.90;98.20;;;;;;4898118;29;21120;-77
2021/11/28 11:47:24;;;;;;;1.60;1.23;;;5.90;98.20;;;;;;4889448;29;20505;-77
2021/11/28 11:49:52;;;;;;;1.60;1.30;;;5.80;98.20;;;;;;4897576;29;20528;-77
2021/11/28 11:52:20;;;;;;;1.60;1.30;;;5.80;98.20;;;;;;4890621;29;21122;-76
2021/11/28 11:54:50;;;;;;;1.60;1.30;;;5.70;98.20;;;;;;4894780;29;20828;-77
2021/11/28 11:57:33;;;;;;;1.60;1.30;;;5.70;98.20;;;;;;4889743;29;20567;-77
2021/11/28 12:00:08;;;;;;;1.60;1.40;;;5.60;98.20;;;;;;4896136;29;20587;-77
2021/11/28 12:02:37;;;;;;;1.60;1.30;;;5.60;98.20;;;;;;4894660;29;20540;-77
2021/11/28 12:05:36;;;;;;;1.60;1.30;;;5.60;98.20;;;;;;4891461;29;20900;-76
2021/11/28 12:08:08;;;;;;;1.63;1.40;;;5.60;98.20;;;;;;4894886;29;20555;-77
2021/11/28 12:10:39;;;;;;;1.60;1.40;;;5.60;98.20;;;;;;4894695;29;20590;-77
2021/11/28 12:13:08;;;;;;;1.60;1.40;;;5.60;98.20;;;;;;4895467;29;20565;-75
2021/11/28 12:15:37;;;;;;;1.60;1.30;;;5.60;98.20;;;;;;4889841;29;20475;-77
2021/11/28 12:18:05;;;;;;;1.67;1.30;;;5.60;98.20;;;;;;4896996;29;20572;-77
2021/11/28 12:20:58;;;;;;;1.60;1.30;;;5.70;98.20;;;;;;4890092;29;20572;-77
2021/11/28 12:23:51;;;;;;;1.63;1.40;;;5.80;98.20;;;;;;4883929;29;20560;-77
2021/11/28 12:26:40;;;;;;;1.60;1.30;;;6.00;98.20;;;;;;4874650;29;20484;-77
2021/11/28 12:29:36;;;;;;;1.60;1.30;;;6.20;98.20;;;;;;4888792;29;20471;-76
2021/11/28 12:32:28;;;;;;;1.60;1.40;;;6.40;98.20;;;;;;4889310;29;20604;-77
2021/11/28 12:35:07;;;;;;;1.60;1.30;;;6.40;98.20;;;;;;4894664;29;20962;-76
2021/11/28 12:37:47;;;;;;;1.60;1.30;;;6.50;98.20;;;;;;4870971;29;20480;-75
2021/11/28 12:40:24;;;;;;;1.60;1.30;;;6.50;98.20;;;;;;4885048;29;20925;-76
2021/11/28 12:42:52;;;;;;;1.67;1.30;;;6.50;98.20;;;;;;4871207;29;20552;-77
2021/11/28 12:45:32;;;;;;;1.60;1.30;;;6.40;98.20;;;;;;4886757;29;20484;-75
2021/11/28 12:48:13;;;;;;;1.60;1.40;;;6.30;98.20;;;;;;4889162;29;20491;-75
2021/11/28 12:50:55;;;;;;;1.60;1.30;;;6.20;98.20;;;;;;4884058;29;20528;-77
2021/11/28 12:53:28;;;;;;;1.60;1.30;;;6.00;98.20;;;;;;4874839;29;20931;-76
2021/11/28 12:56:21;;;;;;;1.60;1.30;;;6.00;98.20;;;;;;4879455;29;20479;-76
2021/11/28 12:59:22;;;;;;;1.60;1.40;;;6.00;98.20;;;;;;4902723;29;20542;-77
2021/11/28 13:02:01;;;;;;;1.70;1.40;;;6.10;98.20;;;;;;4880951;29;20875;-76
2021/11/28 13:04:49;;;;;;;1.63;1.30;;;6.10;98.20;;;;;;4892696;29;21301;-76
2021/11/28 13:07:40;;;;;;;1.60;1.30;;;6.20;98.20;;;;;;4887406;29;20484;-76
2021/11/28 13:10:27;;;;;;;1.60;1.30;;;6.20;98.20;;;;;;4870976;29;20485;-75
2021/11/28 13:12:57;;;;;;;1.67;1.50;;;6.20;98.20;;;;;;4892183;29;20484;-75